Главная страница
METAR-TAF:

METAR-TAF

Аэропорты :

Colville Lake, Северо-Западные Территории, Канада

широта: 67-01-16N, долгота: 126-07-43W, высота над уровнем моря: 274 м

Текущие метеонаблюдения

Эта сводка был подготовлена 15 минут назад, в 03:00 UTC
Ветер 5 Узел от западно-северо-западный
Температура 4°C
Влажность 87%
Давление 1006 hPa
Видимость: 12.9 км
Рассеянная облачность на высоте 1300 фута
Сплошная облачность на высоте 2400 фута
небольшой дождь

METAR: CYVL 270300Z AUTO 29005KT 8SM -RA BKN013 OVC024 04/02 A2972 RMK SLP084

Время: 21:15 (03:15 UTC)


TAF: отсутствует

Метеонаблюдения и прогнозы для более 4000 аэропортов (сводки METAR и TAF).

Имеющиеся станции представлены на карте желтыми и красными точками.

Чтобы увидеть название станции, наведите на нее мышь.

Затем щелкните, чтобы увидеть метеонаблюдения и метеопрогнозы.

Управление картой: чтобы увеличить масштаб, щелкните зеленые кнопки с черным крестиком; чтобы уменьшить масштаб, щелкните зеленую кнопку с тире; для просмотра соседних карт щелкайте зеленые стрелки.


METAR-TAF: